Time;durP1;ratioP1;P1;durP2;ratioP2;P2;SDS_P1;SDS_P2;PMS_P1;PMS_P2;Temp;Humidity;BMP_temperature;BMP_pressure;BME280_temperature;BME280_humidity;BME280_pressure;Samples;Min_cycle;Max_cycle;Signal;HPM_P1;HPM_P2
2022/03/30 00:02:01;;;;;;;;;;;12.10;99.90;;;;;;5066439;28;19960;-62
2022/03/30 00:04:29;;;;;;;;;;;12.00;99.90;;;;;;5073182;28;20028;-62
2022/03/30 00:06:56;;;;;;;;;;;12.00;99.90;;;;;;5070228;28;20294;-63
2022/03/30 00:09:26;;;;;;;;;;;12.10;99.90;;;;;;5074413;28;19924;-63
2022/03/30 00:11:53;;;;;;;;;;;12.30;99.90;;;;;;5071709;28;20345;-62
2022/03/30 00:14:21;;;;;;;;;;;12.50;99.90;;;;;;5069919;28;19928;-63
2022/03/30 00:16:49;;;;;;;;;;;12.70;99.90;;;;;;5070455;28;19994;-63
2022/03/30 00:19:17;;;;;;;;;;;12.80;99.90;;;;;;5070411;28;19925;-63
2022/03/30 00:21:45;;;;;;;;;;;13.00;99.90;;;;;;5070065;28;19956;-63
2022/03/30 00:24:13;;;;;;;;;;;13.00;99.90;;;;;;5064711;28;19935;-63
2022/03/30 00:26:42;;;;;;;;;;;13.00;99.70;;;;;;5072576;28;19928;-63
2022/03/30 00:29:10;;;;;;;;;;;13.00;99.70;;;;;;5066849;28;20400;-62
2022/03/30 00:31:38;;;;;;;;;;;13.00;99.20;;;;;;5071590;28;20019;-63
2022/03/30 00:34:05;;;;;;;;;;;13.00;98.90;;;;;;5065408;28;19947;-63
2022/03/30 00:36:33;;;;;;;;;;;12.80;99.90;;;;;;5072802;28;19972;-63
2022/03/30 00:39:01;;;;;;;;;;;12.80;99.60;;;;;;5067729;28;19964;-63
2022/03/30 00:41:29;;;;;;;;;;;12.60;99.90;;;;;;5066650;28;20356;-61
2022/03/30 00:43:58;;;;;;;;;;;12.40;98.50;;;;;;5065966;28;20313;-63
2022/03/30 00:46:26;;;;;;;;;;;12.30;99.00;;;;;;5065820;28;19924;-63
2022/03/30 00:48:53;;;;;;;;;;;12.20;99.90;;;;;;5072455;28;20429;-63
2022/03/30 00:51:21;;;;;;;;;;;12.20;99.90;;;;;;5072686;28;19928;-63
2022/03/30 00:53:49;;;;;;;;;;;12.10;99.10;;;;;;5069739;28;20455;-62
2022/03/30 00:56:17;;;;;;;;;;;11.90;99.60;;;;;;5073047;28;20316;-62
2022/03/30 00:58:44;;;;;;;;;;;11.80;99.90;;;;;;5070442;28;20066;-62
2022/03/30 01:01:14;;;;;;;;;;;11.70;99.90;;;;;;5064212;28;20415;-63
2022/03/30 01:03:42;;;;;;;;;;;11.70;99.90;;;;;;5069403;28;20377;-63
2022/03/30 01:06:10;;;;;;;;;;;11.50;99.90;;;;;;5067289;28;20357;-62
2022/03/30 01:08:37;;;;;;;;;;;11.50;99.90;;;;;;5066700;28;19968;-63
2022/03/30 01:11:05;;;;;;;;;;;11.60;99.90;;;;;;5068488;28;20015;-63
2022/03/30 01:13:33;;;;;;;;;;;11.60;99.90;;;;;;5064441;28;19978;-62
2022/03/30 01:16:23;;;;;;;;;;;11.50;99.90;;;;;;5069702;28;20019;-62
2022/03/30 01:19:01;;;;;;;;;;;11.50;99.90;;;;;;5065241;28;19924;-62
2022/03/30 01:21:30;;;;;;;;;;;11.30;99.90;;;;;;5073921;28;20439;-64
2022/03/30 01:23:58;;;;;;;;;;;11.30;99.90;;;;;;5072204;28;20444;-63
2022/03/30 01:26:26;;;;;;;;;;;11.40;99.90;;;;;;5070769;28;19952;-63
2022/03/30 01:28:54;;;;;;;;;;;11.40;99.90;;;;;;5064863;28;19975;-62
2022/03/30 01:34:08;;;;;;;;;;;11.50;99.90;;;;;;5068873;28;19968;-63
2022/03/30 01:36:37;;;;;;;;;;;11.70;99.90;;;;;;5070553;28;19963;-63
2022/03/30 01:39:05;;;;;;;;;;;11.80;99.90;;;;;;5064609;28;19997;-62
2022/03/30 01:41:33;;;;;;;;;;;11.70;99.90;;;;;;5064276;28;19925;-63
2022/03/30 01:44:01;;;;;;;;;;;11.60;99.90;;;;;;5062261;28;19952;-62
2022/03/30 01:46:28;;;;;;;;;;;11.60;99.90;;;;;;5064617;28;19979;-62
2022/03/30 01:48:56;;;;;;;;;;;11.50;99.90;;;;;;5069045;28;19924;-62
2022/03/30 01:51:24;;;;;;;;;;;11.50;99.90;;;;;;5068669;28;19964;-62
2022/03/30 01:53:53;;;;;;;;;;;11.40;99.90;;;;;;5069674;28;19972;-63
2022/03/30 01:56:22;;;;;;;;;;;11.40;99.90;;;;;;5071479;28;20406;-63
2022/03/30 01:58:49;;;;;;;;;;;11.60;99.90;;;;;;5070886;28;19974;-63
2022/03/30 02:01:17;;;;;;;;;;;11.80;99.90;;;;;;5070345;28;19987;-63
2022/03/30 02:03:44;;;;;;;;;;;11.90;99.90;;;;;;5069042;28;19931;-62
2022/03/30 02:06:12;;;;;;;;;;;12.00;99.90;;;;;;5066133;28;20020;-63
2022/03/30 02:08:40;;;;;;;;;;;12.10;99.90;;;;;;5070422;28;19924;-63
2022/03/30 02:11:09;;;;;;;;;;;12.10;99.90;;;;;;5063511;28;20015;-63
2022/03/30 02:13:37;;;;;;;;;;;12.20;99.90;;;;;;5066647;28;21426;-62
2022/03/30 02:16:05;;;;;;;;;;;12.10;99.90;;;;;;5064152;28;20007;-62
2022/03/30 02:18:34;;;;;;;;;;;11.90;99.90;;;;;;5068858;28;20019;-63
2022/03/30 02:21:02;;;;;;;;;;;11.70;99.90;;;;;;5068565;28;20472;-63
2022/03/30 02:23:29;;;;;;;;;;;11.60;99.90;;;;;;5064243;28;19971;-63
2022/03/30 02:25:57;;;;;;;;;;;11.50;99.90;;;;;;5071933;28;19978;-63
2022/03/30 02:28:26;;;;;;;;;;;11.50;99.90;;;;;;5069969;28;19963;-63
2022/03/30 02:30:54;;;;;;;;;;;11.60;99.90;;;;;;5069121;28;19925;-63
2022/03/30 02:33:23;;;;;;;;;;;11.50;99.90;;;;;;5063584;28;20015;-63
2022/03/30 02:35:51;;;;;;;;;;;11.50;99.90;;;;;;5064474;28;19966;-62
2022/03/30 02:38:18;;;;;;;;;;;11.50;99.90;;;;;;5069186;28;19970;-63
2022/03/30 02:40:46;;;;;;;;;;;11.50;99.90;;;;;;5066783;28;20356;-62
2022/03/30 02:43:16;;;;;;;;;;;11.50;99.90;;;;;;5059681;28;19925;-63
2022/03/30 02:45:45;;;;;;;;;;;11.50;99.90;;;;;;5068704;28;19925;-63
2022/03/30 02:48:19;;;;;;;;;;;11.40;99.90;;;;;;5068790;28;20031;-63
2022/03/30 02:50:47;;;;;;;;;;;11.40;99.90;;;;;;5070166;28;19968;-63
2022/03/30 02:53:15;;;;;;;;;;;11.40;99.90;;;;;;5069320;28;19960;-63
2022/03/30 02:55:43;;;;;;;;;;;11.30;99.90;;;;;;5068943;28;19924;-63
2022/03/30 02:58:11;;;;;;;;;;;11.30;99.90;;;;;;5066565;28;20047;-63
2022/03/30 03:00:39;;;;;;;;;;;11.30;99.90;;;;;;5069981;28;20397;-62
2022/03/30 03:03:09;;;;;;;;;;;11.30;99.90;;;;;;5062444;28;19932;-63
2022/03/30 03:05:38;;;;;;;;;;;11.40;99.90;;;;;;5068934;28;19928;-63
2022/03/30 03:08:07;;;;;;;;;;;11.50;99.90;;;;;;5061836;28;19986;-63
2022/03/30 03:10:36;;;;;;;;;;;11.60;99.90;;;;;;5069493;28;19975;-63
2022/03/30 03:13:04;;;;;;;;;;;11.60;99.90;;;;;;5060786;28;19925;-63
2022/03/30 03:15:33;;;;;;;;;;;11.60;99.90;;;;;;5069492;28;19925;-63
2022/03/30 03:18:02;;;;;;;;;;;11.60;99.90;;;;;;5069828;28;19964;-63
2022/03/30 03:20:31;;;;;;;;;;;11.60;99.90;;;;;;5071017;28;19951;-63
2022/03/30 03:23:01;;;;;;;;;;;11.60;99.90;;;;;;5064210;28;19968;-63
2022/03/30 03:25:32;;;;;;;;;;;11.70;99.90;;;;;;5070237;28;20023;-63
2022/03/30 03:28:02;;;;;;;;;;;11.60;99.90;;;;;;5071176;28;19971;-63
2022/03/30 03:30:34;;;;;;;;;;;11.70;99.90;;;;;;5073049;28;19924;-64
2022/03/30 03:33:02;;;;;;;;;;;11.60;99.90;;;;;;5070446;28;20035;-64
2022/03/30 03:35:32;;;;;;;;;;;11.50;99.90;;;;;;5067883;28;19931;-63
2022/03/30 03:38:01;;;;;;;;;;;11.50;99.90;;;;;;5070911;28;19924;-64
2022/03/30 03:40:30;;;;;;;;;;;11.50;99.90;;;;;;5070307;28;20370;-64
2022/03/30 03:42:58;;;;;;;;;;;11.40;99.90;;;;;;5069994;28;19931;-63
2022/03/30 03:45:26;;;;;;;;;;;11.40;99.90;;;;;;5071230;28;19967;-64
2022/03/30 03:47:53;;;;;;;;;;;11.30;99.90;;;;;;5070185;28;20370;-63
2022/03/30 03:50:21;;;;;;;;;;;11.20;99.90;;;;;;5071337;28;19963;-63
2022/03/30 03:52:50;;;;;;;;;;;11.10;99.90;;;;;;5071738;28;19931;-63
2022/03/30 03:55:33;;;;;;;;;;;10.80;99.90;;;;;;5072243;28;20378;-64
2022/03/30 03:58:02;;;;;;;;;;;10.70;99.90;;;;;;5066634;28;19929;-63
2022/03/30 04:00:29;;;;;;;;;;;10.50;99.90;;;;;;5069743;28;19924;-64
2022/03/30 04:02:57;;;;;;;;;;;10.50;99.90;;;;;;5072685;28;19924;-64
2022/03/30 04:05:25;;;;;;;;;;;10.40;99.90;;;;;;5071560;28;20007;-63
2022/03/30 04:07:54;;;;;;;;;;;10.50;99.90;;;;;;5067454;28;20009;-63
2022/03/30 04:10:22;;;;;;;;;;;10.30;99.90;;;;;;5073045;28;19974;-64
2022/03/30 04:12:49;;;;;;;;;;;10.10;99.90;;;;;;5064561;28;20325;-63
2022/03/30 04:15:18;;;;;;;;;;;9.90;99.90;;;;;;5073233;28;19925;-63
2022/03/30 04:17:46;;;;;;;;;;;9.90;99.90;;;;;;5069737;28;19960;-63
2022/03/30 04:20:15;;;;;;;;;;;9.90;99.90;;;;;;5069306;28;20997;-64
2022/03/30 04:22:43;;;;;;;;;;;9.90;99.90;;;;;;5066810;28;19963;-65
2022/03/30 04:25:13;;;;;;;;;;;9.80;99.90;;;;;;5067618;28;19925;-64
2022/03/30 04:27:47;;;;;;;;;;;9.80;99.90;;;;;;5053206;28;19987;-64
2022/03/30 04:30:15;;;;;;;;;;;9.60;99.90;;;;;;5046481;28;20014;-64
2022/03/30 04:32:44;;;;;;;;;;;9.50;99.90;;;;;;5045374;28;19993;-64
2022/03/30 04:35:12;;;;;;;;;;;9.80;99.90;;;;;;5045056;28;19960;-63
2022/03/30 04:37:40;;;;;;;;;;;9.30;99.90;;;;;;5045198;28;20035;-66
2022/03/30 04:40:09;;;;;;;;;;;9.30;99.90;;;;;;5045740;28;19943;-64
2022/03/30 04:42:38;;;;;;;;;;;9.30;99.90;;;;;;5043744;28;19976;-64
2022/03/30 04:45:06;;;;;;;;;;;9.30;99.90;;;;;;5042771;28;20500;-66
2022/03/30 04:47:34;;;;;;;;;;;9.20;99.90;;;;;;5043473;28;19932;-65
2022/03/30 04:50:03;;;;;;;;;;;9.20;99.90;;;;;;5044193;28;19949;-63
2022/03/30 04:52:32;;;;;;;;;;;9.20;99.90;;;;;;5042294;28;19932;-64
2022/03/30 04:55:00;;;;;;;;;;;9.20;99.90;;;;;;5048945;28;19932;-63
2022/03/30 04:57:28;;;;;;;;;;;9.20;99.90;;;;;;5052101;28;20017;-63
2022/03/30 04:59:57;;;;;;;;;;;9.10;99.90;;;;;;5046314;28;19978;-64
2022/03/30 05:02:26;;;;;;;;;;;9.00;99.90;;;;;;5044593;28;19998;-64
2022/03/30 05:04:54;;;;;;;;;;;8.90;99.90;;;;;;5046728;28;19943;-65
2022/03/30 05:07:22;;;;;;;;;;;8.80;99.90;;;;;;5045804;28;19972;-63
2022/03/30 05:09:49;;;;;;;;;;;8.80;99.90;;;;;;5044951;28;20369;-66
2022/03/30 05:12:17;;;;;;;;;;;8.60;99.90;;;;;;5045012;28;20035;-64
2022/03/30 05:14:45;;;;;;;;;;;8.50;99.90;;;;;;5044522;28;20056;-65
2022/03/30 05:17:14;;;;;;;;;;;8.50;99.90;;;;;;5042652;28;20028;-66
2022/03/30 05:19:44;;;;;;;;;;;8.50;99.90;;;;;;5042490;28;20394;-64
2022/03/30 05:22:11;;;;;;;;;;;8.30;99.90;;;;;;5041193;28;20003;-65
2022/03/30 05:24:39;;;;;;;;;;;8.40;99.90;;;;;;5046934;28;20419;-65
2022/03/30 05:27:09;;;;;;;;;;;8.40;99.90;;;;;;5043686;28;20577;-65
2022/03/30 05:29:37;;;;;;;;;;;8.40;99.90;;;;;;5045478;28;19981;-67
2022/03/30 05:32:05;;;;;;;;;;;8.40;99.90;;;;;;5043237;28;20404;-64
2022/03/30 05:34:42;;;;;;;;;;;8.50;99.90;;;;;;5045922;28;19929;-64
2022/03/30 05:37:10;;;;;;;;;;;8.50;99.90;;;;;;5040773;28;20002;-66
2022/03/30 05:39:41;;;;;;;;;;;8.60;99.90;;;;;;5045329;28;20046;-68
2022/03/30 05:42:09;;;;;;;;;;;8.80;99.90;;;;;;5044204;28;20026;-66
2022/03/30 05:44:37;;;;;;;;;;;9.00;99.90;;;;;;5045010;28;20431;-65
2022/03/30 05:47:04;;;;;;;;;;;9.00;99.90;;;;;;5042654;28;20451;-67
2022/03/30 05:49:32;;;;;;;;;;;8.90;99.90;;;;;;5041648;28;20031;-67
2022/03/30 05:52:02;;;;;;;;;;;8.80;99.90;;;;;;5055751;28;19925;-68
2022/03/30 05:54:29;;;;;;;;;;;8.70;99.90;;;;;;5065997;28;19972;-65
2022/03/30 05:57:05;;;;;;;;;;;8.70;99.90;;;;;;5069630;28;20561;-65
2022/03/30 05:59:34;;;;;;;;;;;8.70;99.90;;;;;;5063847;28;19978;-65
2022/03/30 06:02:02;;;;;;;;;;;8.50;99.90;;;;;;5070298;28;20360;-65
2022/03/30 06:04:30;;;;;;;;;;;8.40;99.90;;;;;;5072082;28;19928;-65
2022/03/30 06:06:58;;;;;;;;;;;8.50;99.90;;;;;;5072229;28;19960;-65
2022/03/30 06:09:28;;;;;;;;;;;8.60;99.90;;;;;;5072317;28;20282;-65
2022/03/30 06:12:08;;;;;;;;;;;8.60;99.90;;;;;;5065409;28;20282;-65
2022/03/30 06:14:36;;;;;;;;;;;8.60;99.90;;;;;;5068588;28;19928;-65
2022/03/30 06:17:05;;;;;;;;;;;8.70;99.90;;;;;;5072102;28;20409;-64
2022/03/30 06:19:33;;;;;;;;;;;8.70;99.90;;;;;;5071744;28;19992;-65
2022/03/30 06:22:01;;;;;;;;;;;8.70;99.90;;;;;;5071526;28;19960;-65
2022/03/30 06:24:31;;;;;;;;;;;8.70;99.90;;;;;;5071847;28;20023;-65
2022/03/30 06:26:58;;;;;;;;;;;8.70;99.90;;;;;;5072024;28;19929;-65
2022/03/30 06:29:26;;;;;;;;;;;8.60;99.90;;;;;;5071554;28;19924;-65
2022/03/30 06:31:54;;;;;;;;;;;8.70;99.90;;;;;;5071234;28;20019;-67
2022/03/30 06:34:22;;;;;;;;;;;8.70;99.90;;;;;;5071450;28;19970;-66
2022/03/30 06:36:50;;;;;;;;;;;8.60;99.90;;;;;;5071974;28;19951;-66
2022/03/30 06:39:18;;;;;;;;;;;8.60;99.90;;;;;;5071761;28;20020;-66
2022/03/30 06:41:48;;;;;;;;;;;8.60;99.90;;;;;;5070612;28;19924;-65
2022/03/30 06:44:16;;;;;;;;;;;8.50;99.90;;;;;;5070271;28;19924;-65
2022/03/30 06:46:44;;;;;;;;;;;8.60;99.90;;;;;;5071470;28;19974;-66
2022/03/30 06:49:12;;;;;;;;;;;8.60;99.90;;;;;;5072047;28;19958;-65
2022/03/30 06:51:40;;;;;;;;;;;8.50;99.90;;;;;;5071564;28;19924;-64
2022/03/30 06:54:08;;;;;;;;;;;8.50;99.90;;;;;;5070777;28;19924;-65
2022/03/30 06:56:35;;;;;;;;;;;8.60;99.90;;;;;;5071200;28;19964;-64
2022/03/30 06:59:04;;;;;;;;;;;8.60;99.90;;;;;;5071177;28;19931;-68
2022/03/30 07:01:34;;;;;;;;;;;8.50;99.90;;;;;;5070942;28;20019;-64
2022/03/30 07:04:02;;;;;;;;;;;8.50;99.90;;;;;;5070962;28;20365;-65
2022/03/30 07:06:30;;;;;;;;;;;8.50;99.90;;;;;;5071735;28;19978;-65
2022/03/30 07:11:43;;;;;;;;;;;8.50;99.90;;;;;;5070989;28;19978;-64
2022/03/30 07:14:12;;;;;;;;;;;8.40;99.90;;;;;;5066377;28;20347;-64
2022/03/30 07:16:40;;;;;;;;;;;8.40;99.90;;;;;;5069995;28;19964;-64
2022/03/30 07:19:07;;;;;;;;;;;8.40;99.90;;;;;;5061636;28;19947;-64
2022/03/30 07:21:35;;;;;;;;;;;8.40;99.90;;;;;;5069954;28;19925;-64
2022/03/30 07:24:03;;;;;;;;;;;8.50;99.90;;;;;;5064895;28;19978;-66
2022/03/30 07:26:31;;;;;;;;;;;8.60;99.90;;;;;;5071056;28;19925;-64
2022/03/30 07:28:59;;;;;;;;;;;8.70;99.90;;;;;;5070524;28;19952;-64
2022/03/30 07:31:28;;;;;;;;;;;8.80;99.90;;;;;;5071254;28;19952;-65
2022/03/30 07:33:58;;;;;;;;;;;8.80;99.90;;;;;;5070572;28;20666;-64
2022/03/30 07:36:26;;;;;;;;;;;8.70;99.90;;;;;;5071207;28;19931;-64
2022/03/30 07:38:54;;;;;;;;;;;8.70;99.90;;;;;;5071075;28;20031;-64
2022/03/30 07:41:22;;;;;;;;;;;8.70;99.90;;;;;;5070639;28;20432;-67
2022/03/30 07:43:49;;;;;;;;;;;8.70;99.90;;;;;;5066309;28;19928;-64
2022/03/30 07:46:18;;;;;;;;;;;8.70;99.90;;;;;;5071208;28;19931;-64
2022/03/30 07:48:47;;;;;;;;;;;8.70;99.90;;;;;;5071055;28;19928;-66
2022/03/30 07:51:15;;;;;;;;;;;8.70;99.90;;;;;;5070915;28;19929;-65
2022/03/30 07:53:43;;;;;;;;;;;8.70;99.90;;;;;;5070216;28;20031;-64
2022/03/30 07:56:10;;;;;;;;;;;8.70;99.90;;;;;;5070872;28;19998;-64
2022/03/30 07:58:38;;;;;;;;;;;8.70;99.90;;;;;;5070809;28;20372;-65
2022/03/30 08:01:06;;;;;;;;;;;8.80;99.90;;;;;;5070714;28;19978;-65
2022/03/30 08:03:34;;;;;;;;;;;8.80;99.90;;;;;;5069980;28;20274;-63
2022/03/30 08:06:03;;;;;;;;;;;8.80;99.90;;;;;;5070817;28;20348;-64
2022/03/30 08:08:31;;;;;;;;;;;8.80;99.90;;;;;;5070605;28;19964;-64
2022/03/30 08:10:59;;;;;;;;;;;8.90;99.90;;;;;;5070502;28;19971;-64
2022/03/30 08:13:27;;;;;;;;;;;8.90;99.90;;;;;;5072141;28;19946;-64
2022/03/30 08:15:54;;;;;;;;;;;9.00;99.90;;;;;;5074677;28;19924;-67
2022/03/30 08:18:22;;;;;;;;;;;9.10;99.90;;;;;;5074504;28;19956;-63
2022/03/30 08:23:36;;;;;;;;;;;9.20;99.90;;;;;;5074020;28;19978;-63
2022/03/30 08:26:04;;;;;;;;;;;9.30;99.90;;;;;;5074362;28;19928;-63
2022/03/30 08:28:32;;;;;;;;;;;9.30;99.90;;;;;;5073817;28;19997;-63
2022/03/30 08:31:00;;;;;;;;;;;9.40;99.90;;;;;;5073976;28;19955;-63
2022/03/30 08:33:33;;;;;;;;;;;9.40;99.90;;;;;;5073253;28;20305;-63
2022/03/30 08:36:01;;;;;;;;;;;9.30;99.90;;;;;;5074100;28;20397;-63
2022/03/30 08:38:29;;;;;;;;;;;9.40;99.90;;;;;;5074060;28;19989;-63
2022/03/30 08:40:59;;;;;;;;;;;9.40;99.90;;;;;;5073896;28;19983;-63
2022/03/30 08:43:27;;;;;;;;;;;9.40;99.90;;;;;;5072674;28;19978;-64
2022/03/30 08:45:56;;;;;;;;;;;9.50;99.90;;;;;;5074187;28;19975;-63
2022/03/30 08:48:24;;;;;;;;;;;9.50;99.90;;;;;;5073791;28;19935;-65
2022/03/30 08:50:58;;;;;;;;;;;9.50;99.90;;;;;;5074018;28;20385;-64
2022/03/30 08:53:26;;;;;;;;;;;9.50;99.90;;;;;;5073087;28;20343;-65
2022/03/30 08:55:54;;;;;;;;;;;9.40;99.90;;;;;;5073320;28;20028;-64
2022/03/30 08:58:23;;;;;;;;;;;9.50;99.90;;;;;;5073717;28;19978;-65
2022/03/30 09:00:51;;;;;;;;;;;9.50;99.90;;;;;;5073787;28;19928;-63
2022/03/30 09:03:20;;;;;;;;;;;9.50;99.90;;;;;;5072731;28;19924;-69
2022/03/30 09:05:48;;;;;;;;;;;9.50;99.90;;;;;;5073498;28;20369;-66
2022/03/30 09:08:17;;;;;;;;;;;9.50;99.90;;;;;;5073387;28;19924;-65
2022/03/30 09:10:46;;;;;;;;;;;9.60;99.90;;;;;;5073398;28;19924;-65
2022/03/30 09:13:17;;;;;;;;;;;9.80;99.90;;;;;;5070232;28;19928;-65
2022/03/30 09:15:47;;;;;;;;;;;9.70;99.90;;;;;;5073480;28;19959;-65
2022/03/30 09:18:15;;;;;;;;;;;9.80;99.90;;;;;;5073303;28;20477;-66
2022/03/30 09:20:44;;;;;;;;;;;10.00;99.90;;;;;;5073346;28;19924;-65
2022/03/30 09:23:13;;;;;;;;;;;10.20;99.90;;;;;;5071830;28;19932;-65
2022/03/30 09:25:44;;;;;;;;;;;10.30;99.90;;;;;;5073207;28;19924;-65
2022/03/30 09:28:12;;;;;;;;;;;10.30;99.90;;;;;;5098888;22;19978;-62
2022/03/30 09:30:40;;;;;;;;;;;10.40;99.90;;;;;;5085373;28;19928;-61
2022/03/30 09:33:11;;;;;;;;;;;10.40;99.90;;;;;;5091767;28;20015;-62
2022/03/30 09:35:41;;;;;;;;;;;10.40;99.90;;;;;;5092995;28;19924;-62
2022/03/30 09:38:10;;;;;;;;;;;10.30;99.90;;;;;;5092984;28;20456;-62
2022/03/30 09:40:40;;;;;;;;;;;10.40;99.90;;;;;;5092954;28;19947;-60
2022/03/30 09:43:15;;;;;;;;;;;10.40;99.90;;;;;;5091950;28;20028;-62
2022/03/30 09:45:44;;;;;;;;;;;10.40;99.90;;;;;;5087063;28;20018;-62
2022/03/30 09:48:14;;;;;;;;;;;10.30;99.90;;;;;;5092951;28;19924;-62
2022/03/30 09:50:43;;;;;;;;;;;10.30;99.90;;;;;;5092980;28;19985;-62
2022/03/30 09:53:11;;;;;;;;;;;10.20;99.90;;;;;;5092126;28;19974;-62
2022/03/30 09:55:51;;;;;;;;;;;10.30;99.90;;;;;;5092954;28;20592;-62
2022/03/30 09:58:20;;;;;;;;;;;10.20;99.90;;;;;;5092775;28;19924;-63
2022/03/30 10:01:02;;;;;;;;;;;10.20;99.90;;;;;;5092789;28;19932;-61
2022/03/30 10:03:38;;;;;;;;;;;10.30;99.90;;;;;;5092003;28;19947;-61
2022/03/30 10:06:08;;;;;;;;;;;10.30;99.90;;;;;;5092542;28;19934;-62
2022/03/30 10:08:36;;;;;;;;;;;10.40;99.90;;;;;;5092547;28;19924;-62
2022/03/30 10:11:04;;;;;;;;;;;10.40;99.90;;;;;;5092490;28;19931;-61
2022/03/30 10:13:32;;;;;;;;;;;10.50;99.90;;;;;;5091560;28;19955;-62
2022/03/30 10:16:20;;;;;;;;;;;10.50;99.90;;;;;;5092091;28;20456;-62
2022/03/30 10:18:50;;;;;;;;;;;10.60;99.90;;;;;;5092539;28;19924;-62
2022/03/30 10:21:25;;;;;;;;;;;10.80;99.90;;;;;;5092169;28;20436;-62
2022/03/30 10:24:10;;;;;;;;;;;10.80;99.90;;;;;;5091544;28;19928;-62
2022/03/30 10:26:44;;;;;;;;;;;10.90;99.90;;;;;;5091793;28;19974;-62
2022/03/30 10:29:15;;;;;;;;;;;10.90;99.90;;;;;;5091934;28;20005;-62
2022/03/30 10:31:43;;;;;;;;;;;11.00;99.90;;;;;;5092086;28;19994;-62
2022/03/30 10:34:25;;;;;;;;;;;10.90;99.90;;;;;;5091642;28;19928;-62
2022/03/30 10:37:00;;;;;;;;;;;11.20;99.90;;;;;;5091722;28;19924;-62
2022/03/30 10:39:28;;;;;;;;;;;11.50;99.90;;;;;;5092246;28;20293;-63
2022/03/30 10:42:16;;;;;;;;;;;11.60;99.90;;;;;;5089638;28;20472;-63
2022/03/30 10:44:46;;;;;;;;;;;11.50;99.90;;;;;;5067058;28;19971;-63
2022/03/30 10:47:16;;;;;;;;;;;11.50;99.90;;;;;;5090642;28;19924;-63
2022/03/30 10:49:47;;;;;;;;;;;11.60;99.90;;;;;;5092062;28;20433;-63
2022/03/30 10:52:35;;;;;;;;;;;11.80;99.90;;;;;;5091251;28;19997;-63
2022/03/30 10:55:21;;;;;;;;;;;11.90;99.90;;;;;;5091563;28;19963;-63
2022/03/30 10:57:50;;;;;;;;;;;12.20;99.90;;;;;;5091768;28;19928;-62
2022/03/30 11:00:19;;;;;;;;;;;12.40;99.90;;;;;;5091277;28;20389;-62
2022/03/30 11:02:46;;;;;;;;;;;12.70;99.90;;;;;;5091371;28;19928;-63
2022/03/30 11:05:18;;;;;;;;;;;13.00;99.90;;;;;;5091314;28;19931;-63
2022/03/30 11:07:46;;;;;;;;;;;13.30;99.90;;;;;;5091638;28;19959;-63
2022/03/30 11:10:17;;;;;;;;;;;13.50;99.90;;;;;;5091881;28;20025;-63
2022/03/30 11:13:02;;;;;;;;;;;13.60;99.90;;;;;;5090744;28;19924;-63
2022/03/30 11:15:50;;;;;;;;;;;13.80;99.90;;;;;;5085232;28;19974;-62
2022/03/30 11:18:19;;;;;;;;;;;14.40;99.90;;;;;;5091327;28;19924;-63
2022/03/30 11:21:05;;;;;;;;;;;14.60;99.90;;;;;;5091471;28;19954;-63
2022/03/30 11:23:34;;;;;;;;;;;14.90;99.90;;;;;;5090943;28;19986;-63
2022/03/30 11:26:02;;;;;;;;;;;14.50;99.90;;;;;;5091349;28;20381;-63
2022/03/30 11:28:35;;;;;;;;;;;14.50;99.90;;;;;;5091159;28;20015;-63
2022/03/30 11:31:05;;;;;;;;;;;14.40;99.90;;;;;;5091305;28;20019;-62
2022/03/30 11:33:34;;;;;;;;;;;14.50;99.90;;;;;;5090451;28;20027;-62
2022/03/30 11:36:03;;;;;;;;;;;14.40;99.90;;;;;;5091228;28;20446;-62
2022/03/30 11:38:37;;;;;;;;;;;14.30;99.90;;;;;;5084694;28;20024;-62
2022/03/30 11:41:08;;;;;;;;;;;14.50;99.90;;;;;;5091408;28;19931;-63
2022/03/30 11:46:28;;;;;;;;;;;14.90;99.90;;;;;;5090762;28;19924;-63
2022/03/30 11:48:59;;;;;;;;;;;14.90;99.90;;;;;;5095144;28;20400;-63
2022/03/30 11:51:27;;;;;;;;;;;14.80;99.90;;;;;;5095318;28;20062;-63
2022/03/30 11:54:12;;;;;;;;;;;14.50;99.90;;;;;;5094488;28;19928;-63
2022/03/30 11:56:40;;;;;;;;;;;14.20;99.90;;;;;;5095082;28;19994;-62
2022/03/30 11:59:08;;;;;;;;;;;13.90;99.90;;;;;;5088721;28;19931;-61
2022/03/30 12:01:42;;;;;;;;;;;14.00;99.90;;;;;;5089512;28;20079;-63
2022/03/30 12:04:09;;;;;;;;;;;14.30;99.90;;;;;;5094282;28;20017;-63
2022/03/30 12:06:44;;;;;;;;;;;14.40;99.90;;;;;;5094571;28;19946;-63
2022/03/30 12:09:16;;;;;;;;;;;14.50;99.90;;;;;;5095054;28;19982;-63
2022/03/30 12:11:43;;;;;;;;;;;14.10;99.90;;;;;;5094718;28;19931;-63
2022/03/30 12:14:11;;;;;;;;;;;14.10;99.90;;;;;;5093982;28;19952;-62
2022/03/30 12:16:40;;;;;;;;;;;13.90;99.90;;;;;;5094566;28;19928;-63
2022/03/30 12:19:09;;;;;;;;;;;13.50;99.90;;;;;;5094291;28;20289;-62
2022/03/30 12:21:38;;;;;;;;;;;13.70;99.90;;;;;;5094490;28;19964;-63
2022/03/30 12:24:09;;;;;;;;;;;14.10;99.90;;;;;;5093911;28;19928;-63
2022/03/30 12:26:51;;;;;;;;;;;14.50;99.90;;;;;;5094482;28;19928;-63
2022/03/30 12:29:19;;;;;;;;;;;14.50;99.90;;;;;;5094201;28;19924;-63
2022/03/30 12:31:51;;;;;;;;;;;14.80;99.90;;;;;;5094304;28;20335;-63
2022/03/30 12:34:20;;;;;;;;;;;15.30;99.90;;;;;;5093753;28;20389;-63
2022/03/30 12:36:48;;;;;;;;;;;15.50;99.80;;;;;;5094082;28;20290;-63
2022/03/30 12:39:17;;;;;;;;;;;16.10;99.90;;;;;;5094118;28;19924;-63
2022/03/30 12:41:55;;;;;;;;;;;16.40;99.20;;;;;;5093987;28;20018;-63
2022/03/30 12:44:24;;;;;;;;;;;15.70;99.40;;;;;;5086722;28;19951;-63
2022/03/30 12:46:52;;;;;;;;;;;15.40;99.80;;;;;;5087368;28;20350;-62
2022/03/30 12:49:31;;;;;;;;;;;16.10;99.90;;;;;;5094145;28;19924;-63
2022/03/30 12:52:04;;;;;;;;;;;16.10;98.00;;;;;;5093668;28;19970;-62
2022/03/30 12:54:32;;;;;;;;;;;15.60;98.70;;;;;;5093846;28;19931;-63
2022/03/30 12:57:00;;;;;;;;;;;15.10;99.00;;;;;;5093912;28;19978;-62
2022/03/30 12:59:29;;;;;;;;;;;15.10;98.80;;;;;;5092320;28;19954;-62
2022/03/30 13:01:58;;;;;;;;;;;15.60;99.10;;;;;;5093633;28;19960;-62
2022/03/30 13:04:28;;;;;;;;;;;15.80;98.30;;;;;;5093698;28;19954;-63
2022/03/30 13:07:06;;;;;;;;;;;15.90;97.50;;;;;;5093840;28;20011;-63
2022/03/30 13:09:34;;;;;;;;;;;15.70;97.60;;;;;;5093701;28;19924;-63
2022/03/30 13:12:02;;;;;;;;;;;15.50;98.00;;;;;;5092829;28;20393;-63
2022/03/30 13:14:31;;;;;;;;;;;15.10;99.10;;;;;;5093415;28;19970;-63
2022/03/30 13:17:02;;;;;;;;;;;15.10;98.80;;;;;;5093393;28;19924;-63
2022/03/30 13:19:30;;;;;;;;;;;14.60;99.30;;;;;;5085673;28;20412;-63
2022/03/30 13:21:58;;;;;;;;;;;14.50;98.90;;;;;;5090484;28;19928;-62
2022/03/30 13:24:30;;;;;;;;;;;14.30;99.10;;;;;;5093362;28;19930;-63
2022/03/30 13:27:00;;;;;;;;;;;14.20;99.70;;;;;;5093100;28;19928;-62
2022/03/30 13:29:27;;;;;;;;;;;14.00;99.30;;;;;;5093170;28;20389;-63
2022/03/30 13:31:57;;;;;;;;;;;13.90;99.00;;;;;;5093021;28;20452;-63
2022/03/30 13:34:26;;;;;;;;;;;13.80;97.80;;;;;;5093333;28;19958;-62
2022/03/30 13:36:55;;;;;;;;;;;13.70;97.10;;;;;;5093029;28;20136;-63
2022/03/30 13:39:23;;;;;;;;;;;13.80;97.60;;;;;;5093195;28;19924;-63
2022/03/30 13:41:52;;;;;;;;;;;13.70;96.50;;;;;;5092924;28;20023;-62
2022/03/30 13:44:20;;;;;;;;;;;13.70;97.50;;;;;;5092706;28;19978;-62
2022/03/30 13:46:48;;;;;;;;;;;13.90;97.90;;;;;;5092676;28;19924;-63
2022/03/30 13:49:17;;;;;;;;;;;14.20;98.00;;;;;;5092520;28;19931;-62
2022/03/30 13:51:49;;;;;;;;;;;14.20;97.00;;;;;;5092463;28;20027;-62
2022/03/30 13:54:17;;;;;;;;;;;14.30;97.30;;;;;;5092019;28;19924;-63
2022/03/30 13:56:45;;;;;;;;;;;14.40;97.40;;;;;;5092829;28;19928;-63
2022/03/30 13:59:13;;;;;;;;;;;14.30;97.40;;;;;;5092641;28;19978;-62
2022/03/30 14:01:41;;;;;;;;;;;14.20;98.40;;;;;;5092798;28;19974;-62
2022/03/30 14:04:13;;;;;;;;;;;14.10;98.40;;;;;;5091728;28;20389;-63
2022/03/30 14:06:42;;;;;;;;;;;13.90;98.50;;;;;;5092527;28;20027;-64
2022/03/30 14:09:10;;;;;;;;;;;13.90;99.70;;;;;;5092416;28;19998;-63
2022/03/30 14:11:37;;;;;;;;;;;14.00;99.40;;;;;;5092576;28;19924;-63
2022/03/30 14:14:06;;;;;;;;;;;14.30;99.30;;;;;;5092022;28;19981;-63
2022/03/30 14:16:33;;;;;;;;;;;14.80;99.90;;;;;;5092422;28;19967;-63
2022/03/30 14:19:06;;;;;;;;;;;15.20;98.30;;;;;;5091931;28;19981;-63
2022/03/30 14:21:34;;;;;;;;;;;15.30;97.90;;;;;;5092239;28;20458;-62
2022/03/30 14:24:09;;;;;;;;;;;15.30;97.30;;;;;;5091535;28;20510;-62
2022/03/30 14:26:38;;;;;;;;;;;15.20;98.00;;;;;;5085423;28;19936;-63
2022/03/30 14:29:06;;;;;;;;;;;15.10;98.00;;;;;;5085429;28;20372;-63
2022/03/30 14:31:39;;;;;;;;;;;15.00;98.40;;;;;;5086242;28;20346;-63
2022/03/30 14:34:07;;;;;;;;;;;15.10;98.40;;;;;;5091411;28;19931;-63
2022/03/30 14:36:35;;;;;;;;;;;15.50;98.10;;;;;;5091823;28;19959;-63
2022/03/30 14:39:03;;;;;;;;;;;15.40;97.90;;;;;;5091989;28;19950;-63
2022/03/30 14:41:32;;;;;;;;;;;15.20;97.20;;;;;;5092140;28;19924;-63
2022/03/30 14:44:00;;;;;;;;;;;15.00;98.30;;;;;;5091172;28;19924;-63
2022/03/30 14:46:27;;;;;;;;;;;14.70;98.10;;;;;;5091688;28;19924;-63